createdAt,value
2022-11-16T00:01:36.117Z,21.30
2022-11-16T00:04:04.004Z,20.92
2022-11-16T00:06:31.902Z,23.40
2022-11-16T00:09:14.822Z,22.00
2022-11-16T00:11:52.578Z,22.80
2022-11-16T00:14:29.388Z,20.48
2022-11-16T00:17:13.539Z,21.10
2022-11-16T00:19:42.416Z,21.10
2022-11-16T00:22:09.555Z,20.95
2022-11-16T00:24:57.199Z,19.42
2022-11-16T00:27:26.501Z,21.67
2022-11-16T00:30:09.018Z,21.70
2022-11-16T00:32:47.395Z,23.80
2022-11-16T00:35:28.310Z,21.77
2022-11-16T00:38:13.690Z,21.48
2022-11-16T00:40:59.871Z,21.08
2022-11-16T00:43:47.651Z,21.67
2022-11-16T00:46:16.271Z,24.13
2022-11-16T00:48:52.866Z,24.15
2022-11-16T00:51:19.513Z,24.27
2022-11-16T00:53:52.935Z,23.70
2022-11-16T00:56:25.228Z,22.92
2022-11-16T00:58:59.724Z,21.83
2022-11-16T01:03:57.242Z,20.67
2022-11-16T01:06:28.834Z,20.88
2022-11-16T01:08:56.084Z,22.20
2022-11-16T01:11:22.626Z,19.63
2022-11-16T01:13:49.173Z,22.20
2022-11-16T01:16:20.112Z,21.50
2022-11-16T01:18:56.739Z,21.80
2022-11-16T01:21:27.694Z,20.95
2022-11-16T01:23:55.278Z,21.95
2022-11-16T01:26:22.082Z,20.00
2022-11-16T01:28:48.684Z,22.25
2022-11-16T01:31:15.251Z,19.63
2022-11-16T01:33:44.865Z,20.40
2022-11-16T01:36:13.360Z,19.40
2022-11-16T01:38:47.299Z,20.98
2022-11-16T01:41:16.389Z,20.58
2022-11-16T01:44:02.193Z,21.85
2022-11-16T01:46:31.851Z,21.45
2022-11-16T01:49:20.438Z,22.42
2022-11-16T01:51:57.022Z,21.48
2022-11-16T01:54:27.427Z,22.15
2022-11-16T01:56:55.220Z,21.23
2022-11-16T01:59:21.938Z,23.17
2022-11-16T02:01:52.360Z,20.73
2022-11-16T02:04:19.178Z,23.27
2022-11-16T02:07:12.755Z,22.90
2022-11-16T02:10:19.794Z,20.27
2022-11-16T02:12:58.508Z,20.58
2022-11-16T02:15:41.857Z,21.33
2022-11-16T02:18:08.419Z,20.73
2022-11-16T02:20:38.026Z,20.30
2022-11-16T02:23:29.473Z,22.05
2022-11-16T02:26:29.910Z,20.88
2022-11-16T02:29:23.175Z,19.98
2022-11-16T02:31:58.721Z,20.25
2022-11-16T02:34:39.300Z,19.65
2022-11-16T02:37:11.331Z,18.40
2022-11-16T02:39:42.816Z,18.90
2022-11-16T02:42:17.757Z,18.90
2022-11-16T02:45:02.298Z,18.83
2022-11-16T02:47:36.970Z,16.75
2022-11-16T02:50:17.252Z,19.15
2022-11-16T02:52:46.934Z,18.30
2022-11-16T02:55:16.375Z,17.95
2022-11-16T02:58:06.346Z,18.42
2022-11-16T03:00:56.419Z,19.08
2022-11-16T03:03:37.927Z,19.23
2022-11-16T03:06:09.498Z,18.05
2022-11-16T03:09:02.214Z,19.00
2022-11-16T03:11:32.844Z,19.27
2022-11-16T03:14:09.553Z,21.45
2022-11-16T03:16:43.302Z,19.75
2022-11-16T03:19:14.561Z,20.90
2022-11-16T03:21:48.905Z,18.42
2022-11-16T03:24:16.224Z,19.55
2022-11-16T03:26:58.306Z,20.05
2022-11-16T03:29:41.356Z,18.08
2022-11-16T03:32:54.437Z,16.80
2022-11-16T03:35:35.386Z,18.27
2022-11-16T03:38:05.692Z,18.08
2022-11-16T03:40:38.757Z,18.73
2022-11-16T03:43:07.280Z,19.00
2022-11-16T03:45:34.198Z,18.52
2022-11-16T03:48:01.261Z,18.42
2022-11-16T03:53:00.307Z,16.63
2022-11-16T03:55:27.106Z,17.33
2022-11-16T03:57:58.598Z,18.73
2022-11-16T04:00:28.338Z,17.80
2022-11-16T04:02:54.882Z,17.65
2022-11-16T04:05:21.494Z,17.35
2022-11-16T04:07:50.037Z,16.42
2022-11-16T04:10:18.963Z,17.33
2022-11-16T04:12:45.604Z,16.25
2022-11-16T04:15:12.458Z,15.50
2022-11-16T04:17:39.221Z,15.55
2022-11-16T04:20:06.054Z,15.23
2022-11-16T04:22:42.745Z,15.95
2022-11-16T04:25:15.813Z,17.00
2022-11-16T04:27:42.782Z,18.25
2022-11-16T04:30:10.378Z,17.90
2022-11-16T04:32:37.570Z,15.93
2022-11-16T04:35:04.278Z,18.13
2022-11-16T04:37:34.537Z,16.48
2022-11-16T04:40:03.505Z,16.98
2022-11-16T04:42:36.187Z,17.55
2022-11-16T04:45:02.759Z,15.90
2022-11-16T04:47:31.984Z,16.20
2022-11-16T04:49:59.079Z,17.27
2022-11-16T04:52:25.716Z,17.02
2022-11-16T04:54:52.648Z,16.58
2022-11-16T04:57:24.201Z,16.35
2022-11-16T04:59:58.644Z,17.60
2022-11-16T05:02:25.463Z,18.15
2022-11-16T05:04:53.945Z,16.58
2022-11-16T05:07:20.835Z,17.40
2022-11-16T05:09:48.729Z,16.70
2022-11-16T05:12:18.258Z,17.20
2022-11-16T05:14:50.705Z,17.13
2022-11-16T05:17:20.725Z,17.05
2022-11-16T05:19:47.596Z,16.10
2022-11-16T05:22:14.180Z,16.95
2022-11-16T05:24:40.722Z,17.23
2022-11-16T05:27:10.336Z,16.73
2022-11-16T05:29:36.921Z,16.95
2022-11-16T05:32:07.650Z,18.15
2022-11-16T05:34:40.444Z,17.42
2022-11-16T05:37:13.542Z,18.92
2022-11-16T05:39:43.353Z,20.17
2022-11-16T05:42:12.258Z,19.92
2022-11-16T05:44:38.869Z,18.08
2022-11-16T05:47:05.925Z,18.85
2022-11-16T05:49:32.553Z,17.38
2022-11-16T05:51:59.340Z,18.73
2022-11-16T05:54:26.372Z,18.58
2022-11-16T05:56:53.827Z,20.08
2022-11-16T05:59:22.311Z,18.48
2022-11-16T06:01:51.383Z,19.45
2022-11-16T06:04:24.349Z,18.17
2022-11-16T06:06:51.470Z,19.77
2022-11-16T06:09:18.180Z,17.20
2022-11-16T06:11:51.162Z,16.95
2022-11-16T06:14:18.821Z,18.88
2022-11-16T06:16:45.495Z,18.67
2022-11-16T06:19:12.491Z,19.55
2022-11-16T06:21:43.741Z,19.52
2022-11-16T06:24:10.337Z,20.65
2022-11-16T06:28:27.634Z,19.60
2022-11-16T06:30:54.483Z,20.30
2022-11-16T06:33:21.571Z,21.90
2022-11-16T06:35:48.236Z,22.17
2022-11-16T06:38:14.991Z,21.10
2022-11-16T06:40:41.594Z,20.67
2022-11-16T06:43:08.174Z,20.55
2022-11-16T06:45:38.689Z,18.90
2022-11-16T06:48:09.275Z,20.85
2022-11-16T06:50:36.426Z,19.48
2022-11-16T06:53:37.008Z,19.38
2022-11-16T06:56:05.686Z,19.40
2022-11-16T06:58:33.013Z,19.08
2022-11-16T07:01:14.798Z,18.20
2022-11-16T07:03:41.792Z,19.67
2022-11-16T07:06:13.041Z,19.95
2022-11-16T07:08:43.223Z,19.05
2022-11-16T07:11:10.712Z,18.55
2022-11-16T07:13:38.506Z,19.90
2022-11-16T07:16:09.120Z,20.17
2022-11-16T07:18:37.686Z,21.17
2022-11-16T07:21:14.919Z,22.30
2022-11-16T07:23:42.051Z,21.25
2022-11-16T07:26:10.514Z,20.50
2022-11-16T07:28:38.467Z,20.15
2022-11-16T07:31:09.416Z,20.15
2022-11-16T07:33:36.812Z,22.48
2022-11-16T07:38:39.790Z,22.67
2022-11-16T07:41:15.880Z,23.80
2022-11-16T07:43:42.468Z,22.45
2022-11-16T07:49:01.591Z,20.35
2022-11-16T07:51:28.223Z,20.80
2022-11-16T07:53:58.729Z,19.95
2022-11-16T07:56:28.331Z,22.55
2022-11-16T07:58:54.846Z,23.15
2022-11-16T08:01:21.668Z,22.48
2022-11-16T08:03:48.326Z,22.90
2022-11-16T08:06:24.826Z,23.13
2022-11-16T08:09:02.838Z,24.50
2022-11-16T08:11:32.821Z,23.67
2022-11-16T08:14:03.250Z,24.42
2022-11-16T08:16:31.547Z,22.60
2022-11-16T08:18:58.156Z,23.40
2022-11-16T08:21:24.757Z,21.98
2022-11-16T08:23:56.814Z,22.55
2022-11-16T08:26:27.557Z,21.13
2022-11-16T08:28:54.788Z,19.83
2022-11-16T08:31:26.535Z,20.02
2022-11-16T08:33:53.317Z,20.33
2022-11-16T08:36:20.574Z,20.48
2022-11-16T08:38:48.780Z,20.27
2022-11-16T08:41:16.109Z,19.13
2022-11-16T08:43:43.341Z,19.38
2022-11-16T08:46:11.006Z,19.65
2022-11-16T08:48:38.188Z,19.38
2022-11-16T08:51:17.553Z,19.75
2022-11-16T08:53:46.155Z,18.95
2022-11-16T08:56:12.814Z,18.42
2022-11-16T08:58:41.168Z,21.10
2022-11-16T09:01:13.009Z,20.45
2022-11-16T09:03:40.305Z,20.80
2022-11-16T09:06:08.837Z,19.20
2022-11-16T09:08:40.834Z,20.33
2022-11-16T09:11:09.315Z,19.27
2022-11-16T09:13:39.234Z,20.02
2022-11-16T09:16:32.512Z,20.48
2022-11-16T09:18:56.775Z,20.45
2022-11-16T09:21:26.593Z,21.40
2022-11-16T09:23:54.694Z,20.70
2022-11-16T09:26:22.337Z,19.48
2022-11-16T09:28:57.574Z,19.90
2022-11-16T09:31:33.016Z,20.50
2022-11-16T09:34:02.253Z,20.42
2022-11-16T09:36:29.155Z,20.02
2022-11-16T09:41:55.922Z,19.58
2022-11-16T09:44:36.622Z,17.63
2022-11-16T09:47:05.088Z,20.15
2022-11-16T09:49:40.952Z,19.83
2022-11-16T09:52:34.405Z,20.10
2022-11-16T09:55:18.247Z,20.15
2022-11-16T09:57:47.352Z,20.02
2022-11-16T10:00:20.973Z,18.15
2022-11-16T10:03:12.175Z,19.95
2022-11-16T10:06:06.316Z,18.80
2022-11-16T10:08:52.821Z,16.55
2022-11-16T10:11:33.994Z,18.45
2022-11-16T10:14:15.605Z,16.20
2022-11-16T10:17:02.095Z,18.23
2022-11-16T10:19:38.743Z,17.20
2022-11-16T10:22:43.309Z,16.45
2022-11-16T10:25:24.986Z,14.77
2022-11-16T10:28:07.831Z,16.52
2022-11-16T10:30:40.253Z,15.15
2022-11-16T10:33:12.756Z,14.20
2022-11-16T10:35:49.840Z,13.25
2022-11-16T10:38:20.308Z,12.85
2022-11-16T10:40:51.863Z,13.93
2022-11-16T10:43:24.166Z,13.07
2022-11-16T10:46:09.365Z,12.70
2022-11-16T10:48:46.773Z,12.82
2022-11-16T10:51:13.310Z,12.95
2022-11-16T10:53:42.616Z,12.98
2022-11-16T10:56:24.824Z,11.63
2022-11-16T10:58:52.998Z,12.13
2022-11-16T11:01:31.923Z,11.50
2022-11-16T11:04:12.310Z,11.27
2022-11-16T11:06:39.513Z,10.93
2022-11-16T11:09:20.198Z,10.38
2022-11-16T11:11:58.508Z,11.07
2022-11-16T11:14:27.997Z,10.15
2022-11-16T11:16:54.743Z,8.48
2022-11-16T11:19:28.016Z,8.52
2022-11-16T11:22:01.227Z,9.32
2022-11-16T11:24:44.084Z,10.82
2022-11-16T11:27:19.320Z,11.10
2022-11-16T11:29:52.136Z,10.60
2022-11-16T11:32:24.235Z,10.02
2022-11-16T11:34:54.057Z,8.73
2022-11-16T11:37:32.914Z,9.68
2022-11-16T11:40:20.235Z,7.82
2022-11-16T11:43:02.494Z,7.55
2022-11-16T11:45:57.216Z,7.25
2022-11-16T11:48:56.620Z,6.18
2022-11-16T11:51:30.330Z,7.10
2022-11-16T11:53:58.980Z,6.90
2022-11-16T11:56:27.277Z,5.95
2022-11-16T11:58:54.686Z,6.43
2022-11-16T12:01:53.431Z,6.13
2022-11-16T12:04:41.741Z,6.65
2022-11-16T12:07:42.564Z,7.00
2022-11-16T12:10:18.063Z,6.68
2022-11-16T12:12:47.376Z,7.55
2022-11-16T12:15:29.371Z,7.22
2022-11-16T12:18:23.327Z,7.43
2022-11-16T12:21:12.800Z,7.97
2022-11-16T12:24:04.096Z,7.78
2022-11-16T12:27:17.657Z,8.07
2022-11-16T12:30:05.715Z,8.07
2022-11-16T12:33:02.617Z,8.38
2022-11-16T12:36:02.301Z,8.30
2022-11-16T12:39:00.077Z,8.48
2022-11-16T12:41:32.840Z,7.60
2022-11-16T12:44:24.519Z,8.93
2022-11-16T12:47:20.562Z,8.95
2022-11-16T12:50:15.155Z,8.68
2022-11-16T12:53:14.079Z,9.25
2022-11-16T12:55:40.605Z,8.68
2022-11-16T12:58:43.999Z,8.73
2022-11-16T13:01:22.727Z,9.00
2022-11-16T13:03:58.863Z,8.57
2022-11-16T13:06:34.203Z,8.77
2022-11-16T13:09:11.118Z,9.00
2022-11-16T13:11:42.464Z,8.30
2022-11-16T13:14:19.004Z,8.85
2022-11-16T13:16:47.333Z,8.25
2022-11-16T13:19:21.520Z,8.48
2022-11-16T13:22:33.724Z,9.63
2022-11-16T13:25:15.097Z,9.32
2022-11-16T13:27:49.413Z,8.80
2022-11-16T13:30:32.896Z,10.45
2022-11-16T13:33:17.972Z,11.13
2022-11-16T13:35:44.673Z,9.95
2022-11-16T13:38:12.563Z,10.68
2022-11-16T13:40:43.212Z,10.23
2022-11-16T13:43:09.723Z,10.32
2022-11-16T13:45:41.700Z,10.00
2022-11-16T13:48:22.276Z,9.68
2022-11-16T13:50:57.254Z,9.98
2022-11-16T13:56:28.922Z,9.43
2022-11-16T13:58:58.153Z,10.20
2022-11-16T14:01:24.861Z,9.43
2022-11-16T14:04:15.191Z,9.45
2022-11-16T14:06:57.607Z,9.27
2022-11-16T14:09:45.100Z,9.93
2022-11-16T14:12:52.804Z,9.30
2022-11-16T14:15:23.589Z,9.65
2022-11-16T14:17:54.534Z,9.23
2022-11-16T14:20:34.968Z,9.27
2022-11-16T14:23:22.575Z,9.75
2022-11-16T14:26:10.582Z,8.70
2022-11-16T14:28:48.666Z,8.63
2022-11-16T14:31:29.076Z,8.68
2022-11-16T14:33:58.000Z,8.98
2022-11-16T14:36:40.194Z,8.13
2022-11-16T14:39:33.470Z,7.78
2022-11-16T14:42:25.797Z,7.65
2022-11-16T14:45:02.045Z,8.15
2022-11-16T14:47:33.932Z,7.45
2022-11-16T14:50:00.909Z,6.57
2022-11-16T14:52:36.620Z,7.60
2022-11-16T14:55:07.473Z,7.35
2022-11-16T14:57:34.460Z,7.28
2022-11-16T15:00:11.886Z,7.30
2022-11-16T15:02:40.152Z,7.20
2022-11-16T15:05:18.186Z,7.18
2022-11-16T15:07:47.917Z,7.53
2022-11-16T15:10:18.442Z,7.80
2022-11-16T15:12:51.698Z,8.00
2022-11-16T15:15:31.450Z,8.40
2022-11-16T15:18:05.758Z,7.25
2022-11-16T15:20:34.782Z,9.18
2022-11-16T15:23:03.675Z,10.05
2022-11-16T15:25:33.471Z,9.55
2022-11-16T15:28:22.116Z,10.73
2022-11-16T15:30:51.769Z,11.13
2022-11-16T15:33:29.344Z,11.68
2022-11-16T15:35:56.478Z,12.93
2022-11-16T15:38:29.295Z,14.63
2022-11-16T15:41:01.437Z,15.65
2022-11-16T15:43:45.040Z,14.13
2022-11-16T15:46:13.946Z,14.17
2022-11-16T15:48:41.067Z,15.43
2022-11-16T15:51:08.642Z,14.95
2022-11-16T15:53:48.922Z,15.90
2022-11-16T15:56:33.233Z,15.27
2022-11-16T15:59:12.145Z,15.45
2022-11-16T16:01:45.376Z,14.38
2022-11-16T16:04:17.236Z,15.65
2022-11-16T16:07:16.799Z,15.23
2022-11-16T16:09:48.100Z,14.75
2022-11-16T16:12:22.964Z,16.52
2022-11-16T16:14:51.509Z,14.75
2022-11-16T16:17:36.517Z,15.88
2022-11-16T16:20:05.484Z,15.38
2022-11-16T16:22:37.030Z,16.70
2022-11-16T16:25:05.868Z,16.27
2022-11-16T16:27:41.411Z,16.83
2022-11-16T16:30:13.530Z,14.90
2022-11-16T16:32:43.059Z,14.98
2022-11-16T16:35:22.740Z,14.52
2022-11-16T16:37:50.731Z,16.58
2022-11-16T16:40:18.208Z,17.45
2022-11-16T16:42:45.358Z,15.02
2022-11-16T16:45:17.660Z,13.90
2022-11-16T16:47:44.551Z,14.05
2022-11-16T16:50:11.083Z,15.43
2022-11-16T16:52:37.653Z,16.35
2022-11-16T16:55:04.690Z,15.18
2022-11-16T16:57:31.337Z,14.80
2022-11-16T16:59:57.907Z,13.43
2022-11-16T17:02:24.444Z,15.25
2022-11-16T17:04:51.194Z,15.25
2022-11-16T17:07:22.464Z,15.50
2022-11-16T17:10:00.983Z,14.82
2022-11-16T17:12:27.900Z,15.20
2022-11-16T17:15:00.753Z,13.65
2022-11-16T17:17:31.853Z,14.88
2022-11-16T17:19:58.422Z,13.57
2022-11-16T17:22:25.005Z,13.52
2022-11-16T17:24:51.578Z,13.90
2022-11-16T17:27:18.132Z,12.48
2022-11-16T17:29:53.680Z,14.13
2022-11-16T17:32:24.622Z,12.50
2022-11-16T17:34:51.182Z,12.75
2022-11-16T17:37:20.920Z,13.30
2022-11-16T17:39:47.662Z,12.45
2022-11-16T17:42:14.174Z,13.23
2022-11-16T17:44:40.813Z,12.65
2022-11-16T17:47:07.540Z,13.02
2022-11-16T17:49:34.097Z,12.65
2022-11-16T17:52:00.937Z,12.40
2022-11-16T17:54:27.515Z,11.93
2022-11-16T17:56:54.096Z,11.90
2022-11-16T17:59:24.969Z,12.52
2022-11-16T18:01:54.652Z,12.18
2022-11-16T18:04:21.175Z,12.52
2022-11-16T18:06:47.825Z,12.00
2022-11-16T18:09:14.442Z,11.88
2022-11-16T18:11:41.382Z,13.45
2022-11-16T18:14:08.049Z,13.68
2022-11-16T18:16:34.629Z,12.63
2022-11-16T18:19:03.938Z,13.57
2022-11-16T18:21:31.115Z,13.40
2022-11-16T18:24:01.056Z,12.98
2022-11-16T18:26:28.013Z,13.32
2022-11-16T18:28:54.626Z,14.13
2022-11-16T18:31:33.224Z,13.82
2022-11-16T18:34:01.479Z,13.25
2022-11-16T18:36:28.044Z,13.43
2022-11-16T18:38:54.578Z,13.77
2022-11-16T18:41:23.637Z,12.80
2022-11-16T18:44:01.048Z,14.20
2022-11-16T18:46:29.850Z,13.10
2022-11-16T18:48:56.961Z,12.43
2022-11-16T18:51:28.256Z,12.77
2022-11-16T18:53:55.270Z,13.40
2022-11-16T18:56:25.172Z,13.13
2022-11-16T18:58:53.563Z,12.98
2022-11-16T19:01:25.244Z,14.55
2022-11-16T19:03:53.264Z,13.32
2022-11-16T19:06:20.451Z,13.93
2022-11-16T19:08:55.041Z,13.27
2022-11-16T19:11:24.958Z,14.02
2022-11-16T19:13:55.021Z,15.10
2022-11-16T19:16:22.184Z,12.65
2022-11-16T19:18:48.688Z,14.60
2022-11-16T19:21:26.676Z,14.75
2022-11-16T19:23:55.426Z,14.73
2022-11-16T19:26:24.913Z,15.00
2022-11-16T19:28:54.872Z,14.30
2022-11-16T19:31:32.458Z,15.07
2022-11-16T19:34:01.314Z,14.52
2022-11-16T19:36:29.640Z,14.98
2022-11-16T19:38:56.444Z,15.43
2022-11-16T19:41:28.808Z,14.95
2022-11-16T19:43:58.606Z,15.70
2022-11-16T19:46:26.793Z,15.20
2022-11-16T19:48:56.675Z,14.75
2022-11-16T19:51:27.731Z,16.90
2022-11-16T19:53:57.735Z,15.57
2022-11-16T19:56:26.734Z,16.88
2022-11-16T19:58:53.736Z,17.95
2022-11-16T20:01:26.312Z,18.17
2022-11-16T20:03:54.875Z,17.10
2022-11-16T20:06:24.189Z,18.25
2022-11-16T20:08:53.068Z,18.63
2022-11-16T20:11:27.264Z,17.83
2022-11-16T20:13:58.759Z,16.38
2022-11-16T20:19:12.472Z,19.40
2022-11-16T20:21:41.415Z,16.75
2022-11-16T20:24:20.805Z,18.90
2022-11-16T20:26:48.837Z,19.10
2022-11-16T20:29:16.764Z,17.67
2022-11-16T20:31:43.987Z,17.90
2022-11-16T20:34:15.786Z,18.10
2022-11-16T20:36:44.771Z,17.60
2022-11-16T20:39:19.826Z,18.40
2022-11-16T20:41:47.362Z,18.92
2022-11-16T20:44:18.484Z,19.20
2022-11-16T20:46:46.349Z,20.05
2022-11-16T20:49:27.279Z,18.15
2022-11-16T20:51:53.900Z,18.73
2022-11-16T20:54:20.489Z,17.65
2022-11-16T20:56:47.214Z,19.15
2022-11-16T20:59:14.258Z,19.38
2022-11-16T21:01:52.045Z,19.42
2022-11-16T21:04:18.763Z,19.02
2022-11-16T21:06:45.344Z,18.08
2022-11-16T21:09:33.175Z,19.48
2022-11-16T21:11:59.728Z,17.85
2022-11-16T21:14:38.908Z,17.52
2022-11-16T21:17:08.147Z,16.90
2022-11-16T21:19:34.740Z,18.08
2022-11-16T21:22:01.291Z,18.00
2022-11-16T21:24:27.850Z,17.13
2022-11-16T21:26:56.693Z,17.40
2022-11-16T21:32:03.721Z,19.08
2022-11-16T21:34:35.895Z,17.58
2022-11-16T21:37:08.402Z,17.33
2022-11-16T21:39:34.918Z,17.90
2022-11-16T21:42:03.763Z,17.08
2022-11-16T21:44:30.316Z,17.58
2022-11-16T21:47:03.796Z,18.30
2022-11-16T21:50:00.855Z,17.50
2022-11-16T21:52:30.520Z,16.83
2022-11-16T21:54:57.064Z,17.50
2022-11-16T21:57:26.669Z,17.27
2022-11-16T21:59:53.301Z,16.48
2022-11-16T22:02:22.639Z,17.38
2022-11-16T22:04:49.313Z,16.35
2022-11-16T22:07:16.940Z,16.50
2022-11-16T22:09:43.589Z,17.58
2022-11-16T22:12:12.451Z,16.60
2022-11-16T22:14:40.169Z,16.02
2022-11-16T22:17:15.104Z,16.58
2022-11-16T22:19:42.059Z,17.08
2022-11-16T22:22:16.370Z,16.05
2022-11-16T22:24:45.845Z,17.50
2022-11-16T22:27:12.607Z,16.33
2022-11-16T22:29:39.248Z,15.15
2022-11-16T22:32:05.898Z,15.80
2022-11-16T22:34:32.421Z,14.80
2022-11-16T22:36:59.051Z,14.90
2022-11-16T22:39:25.577Z,15.90
2022-11-16T22:41:52.110Z,14.05
2022-11-16T22:44:18.662Z,14.95
2022-11-16T22:46:45.262Z,15.70
2022-11-16T22:49:11.815Z,13.43
2022-11-16T22:51:38.374Z,14.90
2022-11-16T22:54:05.820Z,15.00
2022-11-16T22:56:33.521Z,15.25
2022-11-16T22:59:01.341Z,15.75
2022-11-16T23:01:28.052Z,15.75
2022-11-16T23:03:56.471Z,15.10
2022-11-16T23:06:23.289Z,14.48
2022-11-16T23:08:51.583Z,15.13
2022-11-16T23:11:22.872Z,13.35
2022-11-16T23:13:49.523Z,13.57
2022-11-16T23:16:16.106Z,14.65
2022-11-16T23:18:42.684Z,13.45
2022-11-16T23:21:11.675Z,13.55
2022-11-16T23:23:39.381Z,14.48
2022-11-16T23:26:17.286Z,13.80
2022-11-16T23:28:43.838Z,15.32
2022-11-16T23:31:10.438Z,14.63
2022-11-16T23:33:41.448Z,13.82
2022-11-16T23:36:14.036Z,14.40
2022-11-16T23:38:44.494Z,12.85
2022-11-16T23:41:11.168Z,13.77
2022-11-16T23:43:37.959Z,13.77
2022-11-16T23:46:05.843Z,12.32
2022-11-16T23:48:41.585Z,12.20
2022-11-16T23:51:09.571Z,13.57
2022-11-16T23:53:36.390Z,12.52
2022-11-16T23:56:06.084Z,12.27
2022-11-16T23:58:34.355Z,13.45
